New Johnsonville, TN

10:56 PM CST on January 30, 2015 (GMT -0600)
APRSWXNET New Johnsonville TN US | Change Station
CLOSE
Current Station
Personal Weather Station
Location: Denver, TN
Elevation: 419 ft
Nearby Weather Stations
Active Advisory: Special Statement

Elev 419 ft 36.01 °N, 87.97 °W | Updated 23 minutes ago

Clear
Clear
26 °F
Feels Like 26 °F
N
0
Wind Variable Wind from NNE
Gusts 0.0 mph

Today
High -- | Low -- °F
--% Chance of Precip.
Yesterday
High -- | Low -- °F
Precip. -- in
6:54 AM 5:16 PM
Waxing Gibbous, 87% visible
Pressure 30.43 in
Visibility 10.0 miles
Clouds Scattered Clouds 1400 ft
Windchill 26 °F
Dew Point 22 °F
Humidity 85%
Rainfall -999.00 in
Snow Depth Not available.
UV 0 out of 12
Pollen 1.90 out of 12
Air Quality Not available.
Flu Activity Not available.
METAR KCEY 310435Z AUTO 08003KT 10SM SCT014 M02/M07 A3043 RMK AO1

More Conditions Fewer Conditions

Pressure 30.43 in
Visibility 10.0 miles
Clouds Scattered Clouds 1400 ft
Windchill 26 °F
Dew Point 22 °F
Humidity 85%
Rainfall -999.00 in
Snow Depth Not available.
UV 0 out of 12
Pollen 1.90 out of 12
Air Quality Not available.
Flu Activity Not available.
METAR KCEY 310435Z AUTO 08003KT 10SM SCT014 M02/M07 A3043 RMK AO1

More Conditions Fewer Conditions

10-Day Weather Forecast

Almanac

Astronomy

Jan. 30, 2015 Rise Set
Actual Time
Civil Twilight
Nautical Twilight
Astronomical Twilight
Moon
Length of Visible Light
Length of Day
Tomorrow will be .
, % of the Moon is Illuminated

Today's Extremes

State Highs State Lows

Community

WunderPhotos

Upload Photos

1,791,999 photos uploaded!

WunderBlogs® & News

Nearby

Air Quality

  Air Quality AQ Index Pollutant
Not available.

Snow Depth

Station Depth Elevation

Earthquake Activity

City Distance Mag. Time & Date
Minimum magnitude displayed is 2.5.

Coastal Water Temperatures

Place Temperature

Nearby Weather Stations